KSUX/SUX METAR and TAF weather

Enter ICAO airport designator
Station Type Date Time Source
KSUX METAR 2021/09/16 10:52 UTC NOAA

KSUX 161052Z 16009KT 10SM CLR 18/16 A2985 RMK AO2 SLP102 T01780156


Station Type Date Time Source
KSUX Decoded METAR 2021/09/16 10:52 UTC NOAA

SIOUX GATEWAY AIRPORT, IA, United States (KSUX) 42-23N 96-23W 338M
Sep 16, 2021 - 06:52 AM EDT / 2021.09.16 1052 UTC
Wind: from the SSE (160 degrees) at 10 MPH (9 KT):0
Visibility: 10 mile(s):0
Sky conditions: clear
Temperature: 64.0 F (17.8 C)
Dew Point: 60.1 F (15.6 C)
Relative Humidity: 86%
Pressure (altimeter): 29.85 in. Hg (1010 hPa)
ob: KSUX 161052Z 16009KT 10SM CLR 18/16 A2985 RMK AO2 SLP102 T01780156
cycle: 11

Station Type Date Time Source
KSUX TAF 2021/09/16 06:22 UTC NOAA

TAF KSUX 160520Z 1606/1706 16011G18KT P6SM FEW180 WS020/19040KT
FM161400 17012G23KT P6SM FEW200
FM161700 18020G32KT P6SM SKC
FM162300 17013G21KT P6SM SCT050 SCT100

Example: see airport list